Time;durP1;ratioP1;P1;durP2;ratioP2;P2;SDS_P1;SDS_P2;PMS_P1;PMS_P2;Temp;Humidity;BMP_temperature;BMP_pressure;BME280_temperature;BME280_humidity;BME280_pressure;Samples;Min_cycle;Max_cycle;Signal;HPM_P1;HPM_P2
2022/12/15 00:40:58;;;;;;;4.27;2.37;;;;;;;;;;5062949;27;87067;-54
2022/12/15 00:43:26;;;;;;;2.33;2.13;;;;;;;;;;5046471;27;87931;-54
2022/12/15 00:48:42;;;;;;;3.53;2.27;;;;;;;;;;5050442;27;87065;-54
2022/12/15 00:51:11;;;;;;;4.23;2.13;;;;;;;;;;5045219;27;86350;-54
2022/12/15 01:21:21;;;;;;;1.73;1.63;;;;;;;;;;5060670;27;87649;-54
2022/12/15 01:23:53;;;;;;;3.13;1.97;;;;;;;;;;5061830;27;87110;-55
2022/12/15 01:26:22;;;;;;;3.13;1.90;;;;;;;;;;5045481;27;88883;-54
2022/12/15 01:28:50;;;;;;;3.53;2.43;;;;;;;;;;5041065;28;89995;-54
2022/12/15 01:31:18;;;;;;;3.33;2.30;;;;;;;;;;5041675;27;88152;-54
2022/12/15 01:33:47;;;;;;;4.03;2.00;;;;;;;;;;5045614;27;87160;-53
2022/12/15 01:36:15;;;;;;;2.20;1.70;;;;;;;;;;5041545;27;89207;-54
2022/12/15 01:38:43;;;;;;;2.37;2.13;;;;;;;;;;5041693;27;88944;-53
2022/12/15 01:41:19;;;;;;;2.57;2.20;;;;;;;;;;5047999;27;87092;-53
2022/12/15 01:43:48;;;;;;;3.23;2.47;;;;;;;;;;5062082;27;86256;-54
2022/12/15 01:46:17;;;;;;;2.77;2.00;;;;;;;;;;5061642;27;89142;-54
2022/12/15 01:48:47;;;;;;;2.67;2.20;;;;;;;;;;5062951;27;88674;-53
2022/12/15 01:51:17;;;;;;;3.90;2.93;;;;;;;;;;5069264;27;88066;-54
2022/12/15 01:53:48;;;;;;;3.77;2.10;;;;;;;;;;5061471;27;87109;-54
2022/12/15 01:56:17;;;;;;;2.10;1.77;;;;;;;;;;5061594;27;88078;-54
2022/12/15 01:58:48;;;;;;;1.83;1.33;;;;;;;;;;5061295;27;88694;-54
2022/12/15 02:01:16;;;;;;;3.63;2.13;;;;;;;;;;5062368;27;87662;-54
2022/12/15 02:03:44;;;;;;;3.50;2.57;;;;;;;;;;5061658;27;86999;-54
2022/12/15 02:06:13;;;;;;;3.53;1.83;;;;;;;;;;5062033;27;89134;-54
2022/12/15 02:08:41;;;;;;;2.97;2.00;;;;;;;;;;5073935;27;87988;-54
2022/12/15 02:11:21;;;;;;;3.30;1.80;;;;;;;;;;5062329;27;87042;-53
2022/12/15 02:13:52;;;;;;;3.00;2.00;;;;;;;;;;5081676;27;87075;-53
2022/12/15 02:16:23;;;;;;;2.50;1.93;;;;;;;;;;5050786;27;90197;-54
2022/12/15 02:18:52;;;;;;;2.60;1.93;;;;;;;;;;5078408;27;87403;-54
2022/12/15 02:21:21;;;;;;;3.00;1.50;;;;;;;;;;5062348;27;87050;-53
2022/12/15 02:24:09;;;;;;;3.73;1.57;;;;;;;;;;5061474;27;87141;-54
2022/12/15 02:26:58;;;;;;;2.00;1.60;;;;;;;;;;5048325;27;89233;-53
2022/12/15 02:29:41;;;;;;;4.40;1.30;;;;;;;;;;5061793;27;88766;-53
2022/12/15 02:32:12;;;;;;;1.83;1.67;;;;;;;;;;5079102;27;88915;-54
2022/12/15 02:34:41;;;;;;;1.40;1.30;;;;;;;;;;5069158;27;86471;-53
2022/12/15 02:37:11;;;;;;;2.30;2.10;;;;;;;;;;5061171;27;89123;-54
2022/12/15 02:39:39;;;;;;;2.60;2.17;;;;;;;;;;5061407;27;89010;-54
2022/12/15 02:42:07;;;;;;;3.97;1.93;;;;;;;;;;5061341;27;88047;-54
2022/12/15 02:44:36;;;;;;;3.07;1.83;;;;;;;;;;5061231;27;87067;-53
2022/12/15 02:47:13;;;;;;;1.60;1.50;;;;;;;;;;5061498;27;88713;-54
2022/12/15 02:49:43;;;;;;;2.17;1.60;;;;;;;;;;5069458;27;87890;-53
2022/12/15 02:52:14;;;;;;;2.00;1.80;;;;;;;;;;5067841;27;87083;-54
2022/12/15 02:54:46;;;;;;;1.53;1.37;;;;;;;;;;5061497;27;87830;-54
2022/12/15 02:57:16;;;;;;;3.83;1.80;;;;;;;;;;5060603;27;89099;-54
2022/12/15 02:59:45;;;;;;;1.70;1.60;;;;;;;;;;5061013;27;87939;-54
2022/12/15 03:02:15;;;;;;;4.07;1.10;;;;;;;;;;5048828;27;86937;-53
2022/12/15 03:04:44;;;;;;;2.53;1.80;;;;;;;;;;5078407;27;87131;-53
2022/12/15 03:07:13;;;;;;;1.80;1.60;;;;;;;;;;5062278;27;90063;-53
2022/12/15 03:09:41;;;;;;;1.60;1.17;;;;;;;;;;5060191;27;91655;-56
2022/12/15 03:12:10;;;;;;;1.90;1.57;;;;;;;;;;5079278;27;87078;-55
2022/12/15 03:14:38;;;;;;;1.40;1.23;;;;;;;;;;5063061;27;87523;-55
2022/12/15 03:17:07;;;;;;;2.40;1.50;;;;;;;;;;5077040;27;88951;-54
2022/12/15 03:19:37;;;;;;;1.30;1.20;;;;;;;;;;5058864;27;88737;-56
2022/12/15 03:22:05;;;;;;;1.53;1.30;;;;;;;;;;5059193;27;87048;-55
2022/12/15 03:24:33;;;;;;;1.70;1.60;;;;;;;;;;5059925;27;86530;-56
2022/12/15 03:27:02;;;;;;;1.43;1.20;;;;;;;;;;5060367;27;88164;-55
2022/12/15 03:29:30;;;;;;;1.53;1.33;;;;;;;;;;5060624;27;88884;-55
2022/12/15 03:31:58;;;;;;;1.90;1.50;;;;;;;;;;5076754;27;88088;-55
2022/12/15 03:34:27;;;;;;;1.60;1.30;;;;;;;;;;5060531;27;89190;-55
2022/12/15 03:36:56;;;;;;;1.80;1.10;;;;;;;;;;5070149;27;89171;-55
2022/12/15 03:39:25;;;;;;;1.60;1.40;;;;;;;;;;5067904;27;87530;-55
2022/12/15 03:41:53;;;;;;;1.47;1.33;;;;;;;;;;5080839;27;87136;-55
2022/12/15 03:44:21;;;;;;;1.23;1.17;;;;;;;;;;5080680;27;87035;-55
2022/12/15 03:46:50;;;;;;;1.93;1.53;;;;;;;;;;5079101;27;88371;-55
2022/12/15 03:49:18;;;;;;;1.80;1.40;;;;;;;;;;5080552;27;88829;-55
2022/12/15 03:51:46;;;;;;;2.47;1.37;;;;;;;;;;5078436;27;86986;-55
2022/12/15 03:54:17;;;;;;;1.10;1.00;;;;;;;;;;5074274;27;87374;-55
2022/12/15 03:56:45;;;;;;;1.50;1.40;;;;;;;;;;5059480;27;89165;-55
2022/12/15 03:59:14;;;;;;;1.33;1.20;;;;;;;;;;5059875;27;89727;-55
2022/12/15 04:01:45;;;;;;;2.13;1.63;;;;;;;;;;5059817;27;87062;-55
2022/12/15 04:04:14;;;;;;;2.20;1.83;;;;;;;;;;5068473;27;87189;-55
2022/12/15 04:06:42;;;;;;;1.03;1.00;;;;;;;;;;5058333;27;87892;-55
2022/12/15 04:09:10;;;;;;;1.50;1.17;;;;;;;;;;5059479;27;88882;-55
2022/12/15 04:11:40;;;;;;;1.30;1.20;;;;;;;;;;5059526;27;87137;-55
2022/12/15 04:14:09;;;;;;;2.07;1.30;;;;;;;;;;5060839;27;86249;-55
2022/12/15 04:16:38;;;;;;;1.87;1.40;;;;;;;;;;5061870;27;88068;-55
2022/12/15 04:21:52;;;;;;;1.00;0.90;;;;;;;;;;5065724;27;88177;-55
2022/12/15 05:33:43;;;;;;;1.47;1.30;;;;;;;;;;5068953;27;89148;-56
2022/12/15 05:36:12;;;;;;;1.27;0.90;;;;;;;;;;5075705;27;87697;-56
2022/12/15 05:38:40;;;;;;;1.47;1.23;;;;;;;;;;5082063;27;87038;-56
2022/12/15 05:41:08;;;;;;;2.40;2.00;;;;;;;;;;5082261;27;87176;-56
2022/12/15 05:43:37;;;;;;;2.03;1.30;;;;;;;;;;5082432;27;88201;-56
2022/12/15 05:46:05;;;;;;;1.10;0.87;;;;;;;;;;5080900;27;88469;-56
2022/12/15 05:48:34;;;;;;;1.00;1.00;;;;;;;;;;5063297;27;87067;-55
2022/12/15 05:51:04;;;;;;;1.27;1.17;;;;;;;;;;5050059;27;87652;-56
2022/12/15 05:53:33;;;;;;;1.10;1.00;;;;;;;;;;5062299;27;89296;-56
2022/12/15 05:56:02;;;;;;;1.63;1.10;;;;;;;;;;5070018;27;87869;-56
2022/12/15 05:58:31;;;;;;;0.93;0.93;;;;;;;;;;5081943;27;87141;-55
2022/12/15 06:01:03;;;;;;;1.30;1.13;;;;;;;;;;5082736;27;86493;-56
2022/12/15 06:03:31;;;;;;;1.27;1.10;;;;;;;;;;5071438;27;87941;-55
2022/12/15 06:06:01;;;;;;;3.53;1.53;;;;;;;;;;5064202;27;88649;-55
2022/12/15 06:08:31;;;;;;;1.83;1.20;;;;;;;;;;5074834;27;88007;-55
2022/12/15 06:10:59;;;;;;;2.53;1.30;;;;;;;;;;5082417;27;87016;-55
2022/12/15 06:13:28;;;;;;;1.40;1.30;;;;;;;;;;5082389;27;89036;-55
2022/12/15 06:15:57;;;;;;;0.97;0.87;;;;;;;;;;5065845;27;88725;-55
2022/12/15 06:18:26;;;;;;;1.60;1.27;;;;;;;;;;5062030;27;87287;-55
2022/12/15 06:20:57;;;;;;;1.13;1.00;;;;;;;;;;5061760;27;87190;-56
2022/12/15 06:23:26;;;;;;;1.30;1.10;;;;;;;;;;5072435;27;87006;-56
2022/12/15 06:25:56;;;;;;;1.17;1.10;;;;;;;;;;5071197;27;89058;-55
2022/12/15 06:28:24;;;;;;;1.13;0.90;;;;;;;;;;5061549;27;87249;-55
2022/12/15 06:30:53;;;;;;;1.03;1.00;;;;;;;;;;5061868;27;87562;-56
2022/12/15 06:33:21;;;;;;;1.77;1.00;;;;;;;;;;5060274;27;90227;-55
2022/12/15 06:35:50;;;;;;;2.00;1.17;;;;;;;;;;5062047;27;89966;-55
2022/12/15 06:38:18;;;;;;;2.07;1.43;;;;;;;;;;5044696;27;86996;-56
2022/12/15 06:40:47;;;;;;;2.30;1.93;;;;;;;;;;5061406;27;87115;-55
2022/12/15 06:43:16;;;;;;;0.73;0.70;;;;;;;;;;5060860;27;88249;-56
2022/12/15 06:45:48;;;;;;;1.73;1.13;;;;;;;;;;5061537;27;88648;-55
2022/12/15 06:48:17;;;;;;;1.40;1.30;;;;;;;;;;5061861;27;87081;-55
2022/12/15 06:50:45;;;;;;;0.80;0.80;;;;;;;;;;5061188;27;86284;-55
2022/12/15 06:53:17;;;;;;;1.33;0.87;;;;;;;;;;5061315;27;89339;-56
2022/12/15 06:55:46;;;;;;;1.20;1.10;;;;;;;;;;5081315;27;88843;-55
2022/12/15 06:58:14;;;;;;;2.60;1.57;;;;;;;;;;5080508;27;88071;-56
2022/12/15 07:00:44;;;;;;;3.80;1.10;;;;;;;;;;5081403;27;86989;-56
2022/12/15 07:03:14;;;;;;;1.53;1.03;;;;;;;;;;5047443;27;88265;-56
2022/12/15 07:05:42;;;;;;;2.40;1.10;;;;;;;;;;5078996;27;87762;-56
2022/12/15 07:08:11;;;;;;;1.47;0.70;;;;;;;;;;5069445;27;87094;-56
2022/12/15 07:10:40;;;;;;;1.47;1.37;;;;;;;;;;5061319;27;87118;-55
2022/12/15 07:13:09;;;;;;;1.40;1.10;;;;;;;;;;5061005;27;89103;-56
2022/12/15 07:15:38;;;;;;;1.27;0.97;;;;;;;;;;5060592;27;87821;-55
2022/12/15 07:18:07;;;;;;;1.00;1.00;;;;;;;;;;5076205;27;87034;-56
2022/12/15 07:20:36;;;;;;;1.73;1.30;;;;;;;;;;5070397;27;87101;-56
2022/12/15 07:23:06;;;;;;;2.57;1.60;;;;;;;;;;5071702;27;89941;-56
2022/12/15 07:25:36;;;;;;;1.57;1.13;;;;;;;;;;5060976;27;88896;-57
2022/12/15 07:28:04;;;;;;;1.63;1.53;;;;;;;;;;5060818;27;87111;-56
2022/12/15 07:30:33;;;;;;;1.10;1.10;;;;;;;;;;5060702;27;86992;-56
2022/12/15 07:33:07;;;;;;;1.20;1.00;;;;;;;;;;5061354;27;88974;-55
2022/12/15 07:35:35;;;;;;;2.10;1.47;;;;;;;;;;5070886;27;87295;-56
2022/12/15 07:38:06;;;;;;;2.97;0.97;;;;;;;;;;5060420;27;87132;-57
2022/12/15 07:40:35;;;;;;;2.50;1.73;;;;;;;;;;5054892;27;86455;-56
2022/12/15 07:43:03;;;;;;;1.20;1.10;;;;;;;;;;5060010;27;89132;-55
2022/12/15 07:45:31;;;;;;;0.93;0.93;;;;;;;;;;5058648;27;88836;-56
2022/12/15 07:48:00;;;;;;;1.97;1.10;;;;;;;;;;5040268;27;87974;-56
2022/12/15 07:50:30;;;;;;;1.23;1.10;;;;;;;;;;5044791;27;88178;-56
2022/12/15 07:52:58;;;;;;;1.60;1.20;;;;;;;;;;5063300;27;87742;-56
2022/12/15 07:55:27;;;;;;;1.53;1.43;;;;;;;;;;5056994;27;87977;-56
2022/12/15 07:58:15;;;;;;;1.37;1.00;;;;;;;;;;5044697;27;87527;-56
2022/12/15 08:00:43;;;;;;;3.13;1.57;;;;;;;;;;5044171;27;88962;-56
2022/12/15 08:03:16;;;;;;;1.50;0.93;;;;;;;;;;5052751;27;89065;-56
2022/12/15 08:05:46;;;;;;;1.53;1.37;;;;;;;;;;5047980;27;88905;-56
2022/12/15 08:08:14;;;;;;;1.53;1.23;;;;;;;;;;5046931;27;87058;-56
2022/12/15 08:10:42;;;;;;;2.30;1.20;;;;;;;;;;5063455;27;87115;-56
2022/12/15 08:13:11;;;;;;;1.53;1.43;;;;;;;;;;5052136;27;90177;-55
2022/12/15 08:15:59;;;;;;;1.57;1.47;;;;;;;;;;5060107;27;88319;-56
2022/12/15 08:18:28;;;;;;;1.87;1.10;;;;;;;;;;5044523;27;87033;-56
2022/12/15 08:20:58;;;;;;;1.17;1.07;;;;;;;;;;5046515;27;87097;-57
2022/12/15 08:23:27;;;;;;;1.10;0.90;;;;;;;;;;5063399;27;88242;-56
2022/12/15 08:25:59;;;;;;;2.13;1.57;;;;;;;;;;5061303;27;88830;-56
2022/12/15 08:28:27;;;;;;;3.10;1.40;;;;;;;;;;5051432;27;87086;-54
2022/12/15 08:30:56;;;;;;;1.23;0.97;;;;;;;;;;5055346;27;87077;-56
2022/12/15 08:33:24;;;;;;;1.60;1.13;;;;;;;;;;5063298;27;88338;-56
2022/12/15 08:35:53;;;;;;;1.60;1.17;;;;;;;;;;5061475;27;87741;-56
2022/12/15 08:38:25;;;;;;;1.17;1.00;;;;;;;;;;5061096;27;88011;-56
2022/12/15 08:40:54;;;;;;;1.10;0.90;;;;;;;;;;5063389;27;87025;-56
2022/12/15 08:43:22;;;;;;;1.27;1.03;;;;;;;;;;5062820;27;89178;-55
2022/12/15 08:45:51;;;;;;;0.80;0.80;;;;;;;;;;5055175;27;88776;-57
2022/12/15 08:48:19;;;;;;;2.70;1.07;;;;;;;;;;5045876;27;87114;-55
2022/12/15 08:50:47;;;;;;;1.57;1.23;;;;;;;;;;5042746;28;87061;-55
2022/12/15 08:53:16;;;;;;;1.80;1.70;;;;;;;;;;5042983;27;89181;-57
2022/12/15 08:56:04;;;;;;;1.33;1.13;;;;;;;;;;5046419;27;89093;-55
2022/12/15 08:58:33;;;;;;;5.03;0.90;;;;;;;;;;5061868;27;87281;-56
2022/12/15 09:01:01;;;;;;;1.10;1.00;;;;;;;;;;5062423;27;87646;-57
2022/12/15 09:03:30;;;;;;;1.03;0.80;;;;;;;;;;5059415;27;90066;-56
2022/12/15 09:06:02;;;;;;;0.93;0.93;;;;;;;;;;5042728;27;90022;-57
2022/12/15 09:08:30;;;;;;;1.93;1.13;;;;;;;;;;5061082;27;87042;-55
2022/12/15 09:10:59;;;;;;;2.67;1.30;;;;;;;;;;5042303;27;87087;-56
2022/12/15 09:13:28;;;;;;;4.20;1.30;;;;;;;;;;5041930;27;89160;-55
2022/12/15 09:15:58;;;;;;;0.90;0.90;;;;;;;;;;5043025;27;88722;-56
2022/12/15 09:18:36;;;;;;;1.20;1.10;;;;;;;;;;5051990;27;88431;-56
2022/12/15 09:21:05;;;;;;;1.00;0.90;;;;;;;;;;5063171;27;86383;-55
2022/12/15 09:23:34;;;;;;;4.07;1.27;;;;;;;;;;5061686;27;88295;-56
2022/12/15 09:26:03;;;;;;;1.33;0.90;;;;;;;;;;5060533;27;87768;-55
2022/12/15 09:28:33;;;;;;;1.30;1.20;;;;;;;;;;5054791;27;87979;-56
2022/12/15 09:31:05;;;;;;;0.67;0.67;;;;;;;;;;5047329;27;87061;-56
2022/12/15 09:33:33;;;;;;;1.10;0.87;;;;;;;;;;5041892;27;88008;-56
2022/12/15 09:36:03;;;;;;;1.10;0.90;;;;;;;;;;5060189;27;87782;-56
2022/12/15 09:38:31;;;;;;;1.77;1.10;;;;;;;;;;5049737;27;87002;-56
2022/12/15 09:41:07;;;;;;;0.80;0.80;;;;;;;;;;5043117;27;87108;-54
2022/12/15 09:43:37;;;;;;;0.83;0.83;;;;;;;;;;5041755;27;87424;-54
2022/12/15 09:46:16;;;;;;;3.10;1.60;;;;;;;;;;5042064;27;88929;-54
2022/12/15 09:48:45;;;;;;;0.83;0.80;;;;;;;;;;5042581;27;87150;-53
2022/12/15 09:51:15;;;;;;;2.20;1.07;;;;;;;;;;5048411;27;87408;-52
2022/12/15 09:53:43;;;;;;;1.43;1.17;;;;;;;;;;5061160;27;89008;-57
2022/12/15 09:56:24;;;;;;;1.00;0.90;;;;;;;;;;5059034;27;87450;-56
2022/12/15 09:58:55;;;;;;;1.70;1.10;;;;;;;;;;5042846;27;88720;-54
2022/12/15 10:01:24;;;;;;;1.33;1.00;;;;;;;;;;5042769;27;87071;-56
2022/12/15 10:03:55;;;;;;;1.90;1.23;;;;;;;;;;5041111;27;89117;-56
2022/12/15 10:06:24;;;;;;;2.87;1.23;;;;;;;;;;5040957;27;88799;-56
2022/12/15 10:09:01;;;;;;;1.70;1.40;;;;;;;;;;5043148;27;87063;-57
2022/12/15 10:11:36;;;;;;;1.73;1.63;;;;;;;;;;5041348;27;86392;-57
2022/12/15 10:14:07;;;;;;;1.30;1.20;;;;;;;;;;5039374;27;88290;-57
2022/12/15 10:16:35;;;;;;;1.43;1.10;;;;;;;;;;5040735;27;88906;-54
2022/12/15 10:19:07;;;;;;;2.40;1.20;;;;;;;;;;5040795;27;88395;-56
2022/12/15 10:21:36;;;;;;;2.27;1.30;;;;;;;;;;5040811;28;88736;-56
2022/12/15 10:24:13;;;;;;;0.93;0.90;;;;;;;;;;5041359;28;89070;-56
2022/12/15 10:26:41;;;;;;;1.33;0.93;;;;;;;;;;5040837;28;87742;-54
2022/12/15 10:29:24;;;;;;;1.77;1.03;;;;;;;;;;5041095;28;86881;-54
2022/12/15 10:31:55;;;;;;;1.53;1.43;;;;;;;;;;5039372;27;87113;-54
2022/12/15 10:34:25;;;;;;;1.70;1.60;;;;;;;;;;5040771;27;89381;-55
2022/12/15 10:36:53;;;;;;;1.50;1.40;;;;;;;;;;5041366;27;88799;-54
2022/12/15 10:39:22;;;;;;;2.67;1.20;;;;;;;;;;5041308;28;87007;-54
2022/12/15 10:42:09;;;;;;;1.63;1.40;;;;;;;;;;5041050;27;87066;-54
2022/12/15 10:44:39;;;;;;;2.77;1.20;;;;;;;;;;5041244;27;90060;-53
2022/12/15 10:47:10;;;;;;;2.77;1.30;;;;;;;;;;5040977;27;89065;-54
2022/12/15 10:49:39;;;;;;;1.30;1.20;;;;;;;;;;5044751;27;87091;-56
2022/12/15 10:52:12;;;;;;;1.57;1.40;;;;;;;;;;5041825;27;87085;-54
2022/12/15 10:54:44;;;;;;;0.93;0.90;;;;;;;;;;5044070;27;89138;-56
2022/12/15 10:57:16;;;;;;;2.63;1.20;;;;;;;;;;5039873;28;88786;-55
2022/12/15 10:59:45;;;;;;;1.30;1.10;;;;;;;;;;5040419;28;89257;-56
2022/12/15 11:02:41;;;;;;;1.33;1.23;;;;;;;;;;5053861;27;86277;-56
2022/12/15 11:05:17;;;;;;;1.63;1.23;;;;;;;;;;5044071;27;87151;-56
2022/12/15 11:07:46;;;;;;;1.53;1.17;;;;;;;;;;5073991;27;88849;-56
2022/12/15 11:10:18;;;;;;;1.20;1.10;;;;;;;;;;5068496;27;88013;-55
2022/12/15 11:12:53;;;;;;;1.10;1.00;;;;;;;;;;5059743;27;87083;-56
2022/12/15 11:15:42;;;;;;;2.10;1.50;;;;;;;;;;5040666;28;88231;-57
2022/12/15 11:18:17;;;;;;;2.07;1.27;;;;;;;;;;5040637;27;87724;-56
2022/12/15 11:20:48;;;;;;;2.37;1.07;;;;;;;;;;5040653;28;87027;-55
2022/12/15 11:23:19;;;;;;;1.33;1.23;;;;;;;;;;5040268;27;87046;-55
2022/12/15 11:25:48;;;;;;;1.40;1.30;;;;;;;;;;5052257;27;88957;-56
2022/12/15 11:28:19;;;;;;;2.80;1.67;;;;;;;;;;5064315;27;86570;-53
2022/12/15 11:30:48;;;;;;;1.27;1.10;;;;;;;;;;5062379;27;87111;-54
2022/12/15 11:33:17;;;;;;;1.70;1.30;;;;;;;;;;5059424;27;87098;-54
2022/12/15 11:35:50;;;;;;;3.10;1.10;;;;;;;;;;5057075;27;88809;-54
2022/12/15 11:38:20;;;;;;;1.90;1.20;;;;;;;;;;5063536;27;88759;-53
2022/12/15 11:40:48;;;;;;;1.33;1.20;;;;;;;;;;5064432;27;87013;-54
2022/12/15 11:43:29;;;;;;;1.20;1.13;;;;;;;;;;5084147;27;87122;-54
2022/12/15 11:46:02;;;;;;;1.37;1.00;;;;;;;;;;5050292;27;89192;-53
2022/12/15 11:48:33;;;;;;;1.67;1.57;;;;;;;;;;5059540;27;88460;-54
2022/12/15 11:51:03;;;;;;;2.67;1.40;;;;;;;;;;5080940;27;86942;-54
2022/12/15 11:53:37;;;;;;;1.37;1.17;;;;;;;;;;5081067;27;86295;-53
2022/12/15 11:56:07;;;;;;;3.10;1.30;;;;;;;;;;5063166;27;88039;-54
2022/12/15 11:58:39;;;;;;;2.47;1.70;;;;;;;;;;5063200;27;87602;-54
2022/12/15 12:01:09;;;;;;;1.87;1.00;;;;;;;;;;5063050;27;88010;-54
2022/12/15 12:03:39;;;;;;;2.97;1.07;;;;;;;;;;5064086;27;86976;-60
2022/12/15 12:06:10;;;;;;;1.00;0.90;;;;;;;;;;5070870;27;88984;-55
2022/12/15 12:08:56;;;;;;;1.53;0.93;;;;;;;;;;5084239;27;87783;-55
2022/12/15 12:11:26;;;;;;;1.57;1.47;;;;;;;;;;5083836;27;86938;-54
2022/12/15 12:14:01;;;;;;;2.00;1.73;;;;;;;;;;5080539;27;87051;-55
2022/12/15 12:16:39;;;;;;;3.03;1.70;;;;;;;;;;5063038;27;89114;-54
2022/12/15 12:19:10;;;;;;;3.00;2.03;;;;;;;;;;5063447;27;88840;-55
2022/12/15 12:21:41;;;;;;;2.83;1.70;;;;;;;;;;5063431;27;87622;-55
2022/12/15 12:24:11;;;;;;;2.00;1.80;;;;;;;;;;5063011;27;87004;-54
2022/12/15 12:26:41;;;;;;;1.57;1.47;;;;;;;;;;5062214;27;88994;-55
2022/12/15 12:29:12;;;;;;;4.30;2.00;;;;;;;;;;5063373;27;87698;-54
2022/12/15 12:31:43;;;;;;;3.30;1.73;;;;;;;;;;5063166;27;87049;-55
2022/12/15 12:34:13;;;;;;;2.30;1.70;;;;;;;;;;5063262;27;87083;-55
2022/12/15 12:36:43;;;;;;;2.93;1.73;;;;;;;;;;5062612;27;89381;-55
2022/12/15 12:39:17;;;;;;;4.43;1.90;;;;;;;;;;5063408;27;88956;-54
2022/12/15 12:41:46;;;;;;;2.27;1.73;;;;;;;;;;5063287;27;87177;-54
2022/12/15 12:44:15;;;;;;;1.90;1.50;;;;;;;;;;5046356;27;86279;-55
2022/12/15 12:46:44;;;;;;;3.87;2.30;;;;;;;;;;5062842;27;86895;-54
2022/12/15 12:49:17;;;;;;;6.93;1.93;;;;;;;;;;5062748;27;88930;-54
2022/12/15 12:51:55;;;;;;;3.73;2.70;;;;;;;;;;5062446;27;87991;-54
2022/12/15 12:54:42;;;;;;;4.23;2.17;;;;;;;;;;5063156;27;87092;-54
2022/12/15 12:57:40;;;;;;;2.13;1.67;;;;;;;;;;5062139;27;89330;-55
2022/12/15 13:00:19;;;;;;;7.07;2.20;;;;;;;;;;5000637;28;87823;-55
2022/12/15 13:02:57;;;;;;;4.50;2.37;;;;;;;;;;5053716;27;87672;-54
2022/12/15 13:05:27;;;;;;;1.97;1.70;;;;;;;;;;5062951;27;86974;-54
2022/12/15 13:07:57;;;;;;;2.73;2.03;;;;;;;;;;5062023;27;88943;-54
2022/12/15 13:10:25;;;;;;;3.33;2.03;;;;;;;;;;5062940;27;89157;-54
2022/12/15 13:12:54;;;;;;;3.90;1.90;;;;;;;;;;5063164;27;86981;-54
2022/12/15 13:15:38;;;;;;;5.07;2.20;;;;;;;;;;5074027;27;87148;-54
2022/12/15 13:18:07;;;;;;;3.27;1.70;;;;;;;;;;5077512;27;90000;-56
2022/12/15 13:20:36;;;;;;;5.33;1.83;;;;;;;;;;5062371;27;89812;-54
2022/12/15 13:23:22;;;;;;;5.47;2.70;;;;;;;;;;5041854;28;86972;-55
2022/12/15 13:26:04;;;;;;;2.93;2.30;;;;;;;;;;5041265;28;87091;-55
2022/12/15 13:28:42;;;;;;;4.07;2.00;;;;;;;;;;5041705;27;89308;-54
2022/12/15 13:31:27;;;;;;;2.87;2.00;;;;;;;;;;5041990;27;87994;-55
2022/12/15 13:34:10;;;;;;;4.03;2.30;;;;;;;;;;5042418;27;87027;-54
2022/12/15 13:36:49;;;;;;;3.10;2.17;;;;;;;;;;5041845;28;86324;-55
2022/12/15 13:39:32;;;;;;;2.60;2.27;;;;;;;;;;5042078;28;89143;-55
2022/12/15 13:42:26;;;;;;;2.67;1.90;;;;;;;;;;5042334;27;87505;-54
2022/12/15 13:45:16;;;;;;;5.90;1.80;;;;;;;;;;5051172;27;87824;-54
2022/12/15 13:47:50;;;;;;;4.83;1.83;;;;;;;;;;5062379;27;86984;-54
2022/12/15 13:50:19;;;;;;;3.23;1.70;;;;;;;;;;5061533;27;88454;-54
2022/12/15 13:52:50;;;;;;;2.67;2.13;;;;;;;;;;5061760;27;87832;-53
2022/12/15 13:55:38;;;;;;;3.63;2.07;;;;;;;;;;5062144;27;87009;-54
2022/12/15 13:58:13;;;;;;;3.90;2.20;;;;;;;;;;5061597;27;87015;-53
2022/12/15 14:00:48;;;;;;;5.87;2.87;;;;;;;;;;5061652;27;88116;-54
2022/12/15 14:03:17;;;;;;;47.90;20.30;;;;;;;;;;5062238;27;88866;-53
2022/12/15 14:05:48;;;;;;;126.73;48.20;;;;;;;;;;5061603;27;87115;-54
2022/12/15 14:08:18;;;;;;;210.20;81.30;;;;;;;;;;5061435;27;87012;-54
2022/12/15 14:10:47;;;;;;;194.37;78.63;;;;;;;;;;5060560;27;89879;-54
2022/12/15 14:13:21;;;;;;;162.73;64.67;;;;;;;;;;5061435;27;89310;-54
2022/12/15 14:15:51;;;;;;;142.07;59.23;;;;;;;;;;5075974;27;86986;-54
2022/12/15 14:18:23;;;;;;;114.20;50.00;;;;;;;;;;5082017;27;87055;-53
2022/12/15 14:20:52;;;;;;;121.57;46.90;;;;;;;;;;5081845;27;89017;-54
2022/12/15 14:23:21;;;;;;;99.53;44.60;;;;;;;;;;5081011;27;88948;-54
2022/12/15 14:25:56;;;;;;;89.53;37.03;;;;;;;;;;5081690;27;87064;-54
2022/12/15 14:28:26;;;;;;;69.93;34.50;;;;;;;;;;5081843;27;86506;-54
2022/12/15 14:30:55;;;;;;;71.90;34.87;;;;;;;;;;5081208;27;89561;-53
2022/12/15 14:33:23;;;;;;;65.90;29.00;;;;;;;;;;5081033;27;87952;-54
2022/12/15 14:35:57;;;;;;;63.93;26.80;;;;;;;;;;5081029;27;87987;-54
2022/12/15 14:38:27;;;;;;;54.03;26.33;;;;;;;;;;5081437;27;87142;-54
2022/12/15 14:40:57;;;;;;;49.43;24.43;;;;;;;;;;5080931;27;89142;-54
2022/12/15 14:43:27;;;;;;;48.43;22.53;;;;;;;;;;5080907;27;88952;-54
2022/12/15 14:45:57;;;;;;;44.13;21.83;;;;;;;;;;5069951;27;86963;-54
2022/12/15 14:48:27;;;;;;;45.77;19.77;;;;;;;;;;5061196;27;87693;-54
2022/12/15 14:51:12;;;;;;;47.87;19.77;;;;;;;;;;5059696;27;89182;-54
2022/12/15 14:53:40;;;;;;;36.23;17.27;;;;;;;;;;5060680;27;88030;-54
2022/12/15 14:56:12;;;;;;;35.77;17.73;;;;;;;;;;5060181;27;86998;-54
2022/12/15 14:58:42;;;;;;;38.57;17.33;;;;;;;;;;5060037;27;87623;-53
2022/12/15 15:01:22;;;;;;;30.23;15.80;;;;;;;;;;5059310;27;88768;-54
2022/12/15 15:03:56;;;;;;;32.57;14.67;;;;;;;;;;5060158;27;89924;-54
2022/12/15 15:06:28;;;;;;;32.80;16.27;;;;;;;;;;5060754;27;87062;-54
2022/12/15 15:08:56;;;;;;;30.80;16.33;;;;;;;;;;5060756;27;87017;-54
2022/12/15 15:11:28;;;;;;;25.37;14.33;;;;;;;;;;5059984;27;88065;-54
2022/12/15 15:13:58;;;;;;;27.83;14.20;;;;;;;;;;5059976;27;88926;-54
2022/12/15 15:16:27;;;;;;;22.93;13.60;;;;;;;;;;5060506;27;87017;-54
2022/12/15 15:18:55;;;;;;;23.40;12.53;;;;;;;;;;5060469;27;86263;-54
2022/12/15 15:21:24;;;;;;;25.17;13.53;;;;;;;;;;5060038;27;88299;-53
2022/12/15 15:23:59;;;;;;;21.53;13.00;;;;;;;;;;5060274;27;88945;-53
2022/12/15 15:26:28;;;;;;;28.43;12.63;;;;;;;;;;5059234;27;88093;-53
2022/12/15 15:28:58;;;;;;;19.03;9.67;;;;;;;;;;5059917;27;87056;-53
2022/12/15 15:31:31;;;;;;;21.27;10.37;;;;;;;;;;5060717;27;88180;-53
2022/12/15 15:34:08;;;;;;;22.80;10.43;;;;;;;;;;5059664;27;87041;-53
2022/12/15 15:36:37;;;;;;;15.40;9.57;;;;;;;;;;5060037;27;87192;-53
2022/12/15 15:39:10;;;;;;;17.33;9.10;;;;;;;;;;5060504;27;87110;-53
2022/12/15 15:41:38;;;;;;;16.77;8.10;;;;;;;;;;5060697;27;89174;-53
2022/12/15 15:44:12;;;;;;;14.03;8.90;;;;;;;;;;5060689;27;88905;-53
2022/12/15 15:46:41;;;;;;;15.87;9.07;;;;;;;;;;5060471;27;87114;-53
2022/12/15 15:49:10;;;;;;;13.20;7.97;;;;;;;;;;5060261;27;87100;-53
2022/12/15 15:51:38;;;;;;;11.20;6.83;;;;;;;;;;5059232;27;89002;-54
2022/12/15 15:54:08;;;;;;;17.63;7.30;;;;;;;;;;5060026;27;87316;-53
2022/12/15 15:56:38;;;;;;;10.07;6.70;;;;;;;;;;5060265;27;87063;-53
2022/12/15 15:59:11;;;;;;;10.93;6.03;;;;;;;;;;5059800;27;87077;-53
2022/12/15 16:01:40;;;;;;;11.17;6.63;;;;;;;;;;5059952;27;87678;-53
2022/12/15 16:04:08;;;;;;;11.37;6.13;;;;;;;;;;5060384;27;88857;-54
2022/12/15 16:06:37;;;;;;;13.20;5.60;;;;;;;;;;5060680;27;86939;-53
2022/12/15 16:09:14;;;;;;;9.33;5.67;;;;;;;;;;5060758;27;86227;-53
2022/12/15 16:11:42;;;;;;;8.50;5.00;;;;;;;;;;5061227;27;89236;-53
2022/12/15 16:14:13;;;;;;;6.87;5.03;;;;;;;;;;5063502;27;87898;-53
2022/12/15 16:16:41;;;;;;;10.73;4.97;;;;;;;;;;5062709;27;88013;-53
2022/12/15 16:19:10;;;;;;;8.03;4.83;;;;;;;;;;5063885;27;86930;-53
2022/12/15 16:21:39;;;;;;;5.50;3.60;;;;;;;;;;5063441;27;88229;-53
2022/12/15 16:24:09;;;;;;;5.90;4.10;;;;;;;;;;5062990;27;88906;-52
2022/12/15 16:26:38;;;;;;;9.53;4.63;;;;;;;;;;5063295;27;86975;-54
2022/12/15 16:29:09;;;;;;;8.13;3.67;;;;;;;;;;5063576;27;87065;-55
2022/12/15 16:31:44;;;;;;;5.63;3.50;;;;;;;;;;5063226;27;87665;-53
2022/12/15 16:34:12;;;;;;;5.43;3.87;;;;;;;;;;5062949;27;88948;-53
2022/12/15 16:36:41;;;;;;;5.60;3.00;;;;;;;;;;5062534;27;87023;-53
2022/12/15 16:39:12;;;;;;;4.33;3.60;;;;;;;;;;5063180;27;87083;-54
2022/12/15 16:41:41;;;;;;;5.47;3.20;;;;;;;;;;5062254;27;89102;-54
2022/12/15 16:44:10;;;;;;;8.80;3.90;;;;;;;;;;5062694;27;88733;-54
2022/12/15 16:46:40;;;;;;;6.77;3.33;;;;;;;;;;5077987;27;87069;-54
2022/12/15 16:49:08;;;;;;;9.37;3.93;;;;;;;;;;5082638;27;87110;-53
2022/12/15 16:51:38;;;;;;;11.00;3.60;;;;;;;;;;5082716;27;90437;-53
2022/12/15 16:54:06;;;;;;;7.50;4.30;;;;;;;;;;5082703;27;87994;-53
2022/12/15 16:56:34;;;;;;;6.70;4.50;;;;;;;;;;5082996;27;88082;-53
2022/12/15 16:59:03;;;;;;;6.33;4.47;;;;;;;;;;5083359;27;86239;-53
2022/12/15 17:01:53;;;;;;;9.47;4.43;;;;;;;;;;5082815;27;90655;-53
2022/12/15 17:04:21;;;;;;;6.03;4.23;;;;;;;;;;5082970;27;87970;-53
2022/12/15 17:06:50;;;;;;;6.37;4.70;;;;;;;;;;5082873;27;88128;-53
2022/12/15 17:09:19;;;;;;;8.70;4.43;;;;;;;;;;5083347;27;87056;-53
2022/12/15 17:11:47;;;;;;;7.43;4.50;;;;;;;;;;5083165;27;89106;-53
2022/12/15 17:14:16;;;;;;;4.80;3.40;;;;;;;;;;5083113;27;87824;-53
2022/12/15 17:16:44;;;;;;;6.57;4.53;;;;;;;;;;5083577;27;87041;-53
2022/12/15 17:19:14;;;;;;;5.80;4.13;;;;;;;;;;5083593;27;87080;-53
2022/12/15 17:21:49;;;;;;;5.17;3.70;;;;;;;;;;5083093;27;88094;-54
2022/12/15 17:24:18;;;;;;;5.83;3.87;;;;;;;;;;5083663;27;88483;-53
2022/12/15 17:26:47;;;;;;;5.67;3.97;;;;;;;;;;5084223;27;86997;-53